createdAt,value
2023-04-07T00:00:50.557Z,78.85
2023-04-07T00:01:53.823Z,79.55
2023-04-07T00:02:57.416Z,79.54
2023-04-07T00:04:01.093Z,80.09
2023-04-07T00:05:04.413Z,79.86
2023-04-07T00:06:07.999Z,80.07
2023-04-07T00:07:11.096Z,80.55
2023-04-07T00:08:14.885Z,80.59
2023-04-07T00:09:18.182Z,80.48
2023-04-07T00:10:21.476Z,80.00
2023-04-07T00:11:24.632Z,79.81
2023-04-07T00:12:36.503Z,79.90
2023-04-07T00:13:39.343Z,80.78
2023-04-07T00:14:42.805Z,81.15
2023-04-07T00:15:45.838Z,81.58
2023-04-07T00:16:49.191Z,81.32
2023-04-07T00:17:52.269Z,81.63
2023-04-07T00:18:55.272Z,81.46
2023-04-07T00:19:58.444Z,81.20
2023-04-07T00:21:01.462Z,81.23
2023-04-07T00:22:04.359Z,81.01
2023-04-07T00:23:08.436Z,81.15
2023-04-07T00:24:14.425Z,81.33
2023-04-07T00:25:19.605Z,81.67
2023-04-07T00:26:22.436Z,81.23
2023-04-07T00:27:25.552Z,80.95
2023-04-07T00:28:29.309Z,80.87
2023-04-07T00:29:32.338Z,81.19
2023-04-07T00:30:35.737Z,81.26
2023-04-07T00:31:38.943Z,81.09
2023-04-07T00:32:41.777Z,81.29
2023-04-07T00:33:44.812Z,81.41
2023-04-07T00:34:47.638Z,81.47
2023-04-07T00:35:50.683Z,80.85
2023-04-07T00:36:53.763Z,80.64
2023-04-07T00:37:57.262Z,80.97
2023-04-07T00:39:00.501Z,81.72
2023-04-07T00:40:04.386Z,81.83
2023-04-07T00:41:09.728Z,81.45
2023-04-07T00:42:12.756Z,81.33
2023-04-07T00:43:16.197Z,81.60
2023-04-07T00:44:19.149Z,81.83
2023-04-07T00:45:22.038Z,82.00
2023-04-07T00:46:24.951Z,82.06
2023-04-07T00:47:28.086Z,81.92
2023-04-07T00:48:31.544Z,82.07
2023-04-07T00:49:37.146Z,81.73
2023-04-07T00:50:40.611Z,80.68
2023-04-07T00:51:43.681Z,80.50
2023-04-07T00:52:47.100Z,81.35
2023-04-07T00:53:50.437Z,81.06
2023-04-07T00:54:55.634Z,81.75
2023-04-07T00:55:58.494Z,81.76
2023-04-07T00:57:02.014Z,81.29
2023-04-07T00:58:07.996Z,81.15
2023-04-07T00:59:11.087Z,81.44
2023-04-07T01:00:14.566Z,82.27
2023-04-07T01:01:27.664Z,82.44
2023-04-07T01:02:38.604Z,81.73
2023-04-07T01:03:53.879Z,80.94
2023-04-07T01:05:18.934Z,80.84
2023-04-07T01:06:27.083Z,80.62
2023-04-07T01:07:39.433Z,80.61
2023-04-07T01:09:03.031Z,80.64
2023-04-07T01:10:10.814Z,81.55
2023-04-07T01:11:20.953Z,81.88
2023-04-07T01:13:01.932Z,80.82
2023-04-07T01:14:06.910Z,80.74
2023-04-07T01:15:12.403Z,82.20
2023-04-07T01:16:37.227Z,81.70
2023-04-07T01:17:46.080Z,80.37
2023-04-07T01:18:54.562Z,80.29
2023-04-07T01:20:03.680Z,80.15
2023-04-07T01:21:15.608Z,80.26
2023-04-07T01:22:25.202Z,79.98
2023-04-07T01:23:56.967Z,80.04
2023-04-07T01:25:21.799Z,81.13
2023-04-07T01:26:33.854Z,81.01
2023-04-07T01:28:10.813Z,81.20
2023-04-07T01:29:37.518Z,80.86
2023-04-07T01:30:44.517Z,80.57
2023-04-07T01:31:50.628Z,80.56
2023-04-07T01:32:56.726Z,80.33
2023-04-07T01:34:03.002Z,80.18
2023-04-07T01:35:10.363Z,80.09
2023-04-07T01:36:13.907Z,80.36
2023-04-07T01:37:17.885Z,81.02
2023-04-07T01:38:21.980Z,80.90
2023-04-07T01:39:27.322Z,80.53
2023-04-07T01:40:33.439Z,80.49
2023-04-07T01:41:37.929Z,80.13
2023-04-07T01:42:43.090Z,80.44
2023-04-07T01:43:48.081Z,80.49
2023-04-07T01:44:52.207Z,81.26
2023-04-07T01:45:56.467Z,81.57
2023-04-07T01:47:01.227Z,81.36
2023-04-07T01:48:07.296Z,80.76
2023-04-07T01:49:13.248Z,81.56
2023-04-07T01:50:17.301Z,82.78
2023-04-07T01:51:22.591Z,82.86
2023-04-07T01:52:29.534Z,81.66
2023-04-07T01:53:34.236Z,81.22
2023-04-07T01:54:37.766Z,81.50
2023-04-07T01:55:40.607Z,81.52
2023-04-07T01:56:44.990Z,82.10
2023-04-07T01:57:47.712Z,81.55
2023-04-07T01:58:50.841Z,81.33
2023-04-07T01:59:54.133Z,82.09
2023-04-07T02:00:57.574Z,82.26
2023-04-07T02:02:00.769Z,82.50
2023-04-07T02:03:12.147Z,81.89
2023-04-07T02:04:48.649Z,81.81
2023-04-07T02:05:56.697Z,82.29
2023-04-07T02:07:09.924Z,83.00
2023-04-07T02:08:14.739Z,83.17
2023-04-07T02:09:20.719Z,83.12
2023-04-07T02:10:27.282Z,83.97
2023-04-07T02:11:33.580Z,83.68
2023-04-07T02:12:39.645Z,83.44
2023-04-07T02:13:44.072Z,82.82
2023-04-07T02:14:47.721Z,83.97
2023-04-07T02:15:51.069Z,82.83
2023-04-07T02:16:55.028Z,83.49
2023-04-07T02:18:01.122Z,83.04
2023-04-07T02:19:05.737Z,82.90
2023-04-07T02:20:11.905Z,82.37
2023-04-07T02:21:19.658Z,82.06
2023-04-07T02:22:22.410Z,82.51
2023-04-07T02:23:25.612Z,83.21
2023-04-07T02:24:28.344Z,82.70
2023-04-07T02:25:33.036Z,82.96
2023-04-07T02:26:36.704Z,83.39
2023-04-07T02:27:39.742Z,83.26
2023-04-07T02:28:48.075Z,83.04
2023-04-07T02:29:51.100Z,82.53
2023-04-07T02:30:53.963Z,82.14
2023-04-07T02:31:56.917Z,81.83
2023-04-07T02:32:59.790Z,80.88
2023-04-07T02:34:02.906Z,81.69
2023-04-07T02:35:06.665Z,82.68
2023-04-07T02:36:09.774Z,83.75
2023-04-07T02:37:12.649Z,83.65
2023-04-07T02:38:15.810Z,84.10
2023-04-07T02:39:18.711Z,83.73
2023-04-07T02:40:22.501Z,83.58
2023-04-07T02:41:26.477Z,83.35
2023-04-07T02:42:29.342Z,82.92
2023-04-07T02:43:32.160Z,82.72
2023-04-07T02:44:35.006Z,82.83
2023-04-07T02:45:38.040Z,83.84
2023-04-07T02:46:42.086Z,83.80
2023-04-07T02:47:44.920Z,83.54
2023-04-07T02:48:47.876Z,83.26
2023-04-07T02:49:51.096Z,83.50
2023-04-07T02:50:54.095Z,83.12
2023-04-07T02:51:56.939Z,83.34
2023-04-07T02:52:59.872Z,83.15
2023-04-07T02:54:02.992Z,82.94
2023-04-07T02:55:06.528Z,83.38
2023-04-07T02:56:09.551Z,84.22
2023-04-07T02:57:14.113Z,83.60
2023-04-07T02:58:17.194Z,83.36
2023-04-07T02:59:20.235Z,83.61
2023-04-07T03:00:23.379Z,83.92
2023-04-07T03:01:26.265Z,84.45
2023-04-07T03:02:29.402Z,85.17
2023-04-07T03:03:32.425Z,85.24
2023-04-07T03:04:35.528Z,84.65
2023-04-07T03:05:38.380Z,85.22
2023-04-07T03:06:41.444Z,86.04
2023-04-07T03:07:44.321Z,85.57
2023-04-07T03:08:47.483Z,84.83
2023-04-07T03:09:50.394Z,84.31
2023-04-07T03:10:53.484Z,84.26
2023-04-07T03:11:56.850Z,83.99
2023-04-07T03:12:59.955Z,83.94
2023-04-07T03:14:02.673Z,84.40
2023-04-07T03:15:06.237Z,85.17
2023-04-07T03:16:09.189Z,85.11
2023-04-07T03:17:12.668Z,85.93
2023-04-07T03:18:15.961Z,86.02
2023-04-07T03:19:18.972Z,86.00
2023-04-07T03:20:21.905Z,86.58
2023-04-07T03:21:24.846Z,86.45
2023-04-07T03:22:27.854Z,86.01
2023-04-07T03:23:31.027Z,86.58
2023-04-07T03:24:33.964Z,86.77
2023-04-07T03:25:36.874Z,87.49
2023-04-07T03:26:40.225Z,87.55
2023-04-07T03:27:43.270Z,87.38
2023-04-07T03:28:48.614Z,87.43
2023-04-07T03:29:51.532Z,88.12
2023-04-07T03:30:54.464Z,88.07
2023-04-07T03:31:57.926Z,87.32
2023-04-07T03:33:00.748Z,87.04
2023-04-07T03:34:04.800Z,86.72
2023-04-07T03:35:08.040Z,86.88
2023-04-07T03:36:11.295Z,87.39
2023-04-07T03:37:14.255Z,87.76
2023-04-07T03:38:17.656Z,88.20
2023-04-07T03:39:20.541Z,87.85
2023-04-07T03:40:23.693Z,88.37
2023-04-07T03:41:26.609Z,88.21
2023-04-07T03:42:30.155Z,88.19
2023-04-07T03:43:33.179Z,88.03
2023-04-07T03:44:36.098Z,87.92
2023-04-07T03:45:39.190Z,88.32
2023-04-07T03:46:42.043Z,88.13
2023-04-07T03:47:45.156Z,88.70
2023-04-07T03:48:49.676Z,87.97
2023-04-07T03:49:53.328Z,87.81
2023-04-07T03:50:56.189Z,87.65
2023-04-07T03:51:59.098Z,87.34
2023-04-07T03:53:02.254Z,86.91
2023-04-07T03:54:05.096Z,86.76
2023-04-07T03:55:08.564Z,86.30
2023-04-07T03:56:11.769Z,85.63
2023-04-07T03:57:14.860Z,85.71
2023-04-07T03:58:19.138Z,86.60
2023-04-07T03:59:21.896Z,88.24
2023-04-07T04:00:24.921Z,87.83
2023-04-07T04:01:27.725Z,86.94
2023-04-07T04:02:30.699Z,86.94
2023-04-07T04:03:33.672Z,86.91
2023-04-07T04:04:36.685Z,87.03
2023-04-07T04:05:40.736Z,87.31
2023-04-07T04:06:43.625Z,86.68
2023-04-07T04:07:46.617Z,86.04
2023-04-07T04:08:50.652Z,85.59
2023-04-07T04:09:53.661Z,85.39
2023-04-07T04:10:57.519Z,84.82
2023-04-07T04:12:00.468Z,84.75
2023-04-07T04:13:06.929Z,84.92
2023-04-07T04:14:09.927Z,84.80
2023-04-07T04:15:12.734Z,84.97
2023-04-07T04:16:15.806Z,84.76
2023-04-07T04:17:18.731Z,84.94
2023-04-07T04:18:22.788Z,85.46
2023-04-07T04:19:26.466Z,85.12
2023-04-07T04:20:29.407Z,84.63
2023-04-07T04:21:32.306Z,84.63
2023-04-07T04:22:35.705Z,84.67
2023-04-07T04:23:38.779Z,84.80
2023-04-07T04:24:42.239Z,84.58
2023-04-07T04:25:45.022Z,85.21
2023-04-07T04:26:48.180Z,85.74
2023-04-07T04:27:51.113Z,85.80
2023-04-07T04:28:54.163Z,86.46
2023-04-07T04:29:57.282Z,86.30
2023-04-07T04:31:00.340Z,86.74
2023-04-07T04:32:03.235Z,85.74
2023-04-07T04:33:06.165Z,84.88
2023-04-07T04:34:09.090Z,85.63
2023-04-07T04:35:12.014Z,85.59
2023-04-07T04:36:14.972Z,85.84
2023-04-07T04:37:18.154Z,86.05
2023-04-07T04:38:22.169Z,86.11
2023-04-07T04:39:25.074Z,85.90
2023-04-07T04:40:28.331Z,85.48
2023-04-07T04:41:31.261Z,84.51
2023-04-07T04:42:34.673Z,84.70
2023-04-07T04:43:37.504Z,85.07
2023-04-07T04:44:40.404Z,84.88
2023-04-07T04:45:43.296Z,84.12
2023-04-07T04:46:46.103Z,84.63
2023-04-07T04:47:49.254Z,84.98
2023-04-07T04:48:53.072Z,84.62
2023-04-07T04:49:56.412Z,84.00
2023-04-07T04:50:59.511Z,84.99
2023-04-07T04:52:02.549Z,84.85
2023-04-07T04:53:05.453Z,84.25
2023-04-07T04:54:08.861Z,84.07
2023-04-07T04:55:14.013Z,84.54
2023-04-07T04:56:17.440Z,83.95
2023-04-07T04:57:20.473Z,83.15
2023-04-07T04:58:23.542Z,83.30
2023-04-07T04:59:27.328Z,83.08
2023-04-07T05:00:30.370Z,83.44
2023-04-07T05:01:33.566Z,84.43
2023-04-07T05:02:37.452Z,83.46
2023-04-07T05:03:41.023Z,83.20
2023-04-07T05:04:44.114Z,84.03
2023-04-07T05:05:48.966Z,84.56
2023-04-07T05:06:51.908Z,84.44
2023-04-07T05:07:54.792Z,84.38
2023-04-07T05:08:57.638Z,84.12
2023-04-07T05:10:01.673Z,84.89
2023-04-07T05:11:04.788Z,84.99
2023-04-07T05:12:08.299Z,84.98
2023-04-07T05:13:11.492Z,85.15
2023-04-07T05:14:14.366Z,84.84
2023-04-07T05:15:17.334Z,84.86
2023-04-07T05:16:20.568Z,85.30
2023-04-07T05:17:23.486Z,85.22
2023-04-07T05:18:26.401Z,85.61
2023-04-07T05:19:30.015Z,85.42
2023-04-07T05:20:33.436Z,84.66
2023-04-07T05:21:36.663Z,84.45
2023-04-07T05:22:39.704Z,84.06
2023-04-07T05:23:42.565Z,84.27
2023-04-07T05:24:45.520Z,84.82
2023-04-07T05:25:48.654Z,85.27
2023-04-07T05:26:51.504Z,85.10
2023-04-07T05:27:54.428Z,84.54
2023-04-07T05:28:57.384Z,84.13
2023-04-07T05:30:00.682Z,84.39
2023-04-07T05:31:05.087Z,84.64
2023-04-07T05:32:09.553Z,84.80
2023-04-07T05:33:12.884Z,85.23
2023-04-07T05:34:15.818Z,84.30
2023-04-07T05:35:18.898Z,83.58
2023-04-07T05:36:22.037Z,84.29
2023-04-07T05:37:25.137Z,83.45
2023-04-07T05:38:28.325Z,83.11
2023-04-07T05:39:31.612Z,82.96
2023-04-07T05:40:36.277Z,83.12
2023-04-07T05:41:40.742Z,83.36
2023-04-07T05:42:43.753Z,83.17
2023-04-07T05:43:46.773Z,82.84
2023-04-07T05:44:49.573Z,82.39
2023-04-07T05:45:52.697Z,82.79
2023-04-07T05:46:55.577Z,82.42
2023-04-07T05:47:58.489Z,82.69
2023-04-07T05:49:18.404Z,82.22
2023-04-07T05:50:22.353Z,81.66
2023-04-07T05:51:25.137Z,81.42
2023-04-07T05:52:28.150Z,81.32
2023-04-07T05:53:31.181Z,82.10
2023-04-07T05:54:34.044Z,81.95
2023-04-07T05:55:37.120Z,82.04
2023-04-07T05:56:40.023Z,82.23
2023-04-07T05:57:43.012Z,82.42
2023-04-07T05:58:48.181Z,81.39
2023-04-07T05:59:50.900Z,81.49
2023-04-07T06:00:54.242Z,82.11
2023-04-07T06:01:57.496Z,81.42
2023-04-07T06:03:02.058Z,80.85
2023-04-07T06:04:05.186Z,80.95
2023-04-07T06:05:08.213Z,81.56
2023-04-07T06:06:11.218Z,81.30
2023-04-07T06:07:14.106Z,81.77
2023-04-07T06:08:17.092Z,81.70
2023-04-07T06:09:19.999Z,81.76
2023-04-07T06:10:23.402Z,80.36
2023-04-07T06:11:27.519Z,80.65
2023-04-07T06:12:30.533Z,80.79
2023-04-07T06:13:33.335Z,80.55
2023-04-07T06:14:37.169Z,80.59
2023-04-07T06:15:40.046Z,80.27
2023-04-07T06:16:43.354Z,81.26
2023-04-07T06:17:46.363Z,80.74
2023-04-07T06:18:50.677Z,81.52
2023-04-07T06:19:56.810Z,81.46
2023-04-07T06:20:59.916Z,80.97
2023-04-07T06:22:02.879Z,82.00
2023-04-07T06:23:05.643Z,81.60
2023-04-07T06:24:08.707Z,80.95
2023-04-07T06:25:11.597Z,80.76
2023-04-07T06:26:14.764Z,81.37
2023-04-07T06:27:18.676Z,81.60
2023-04-07T06:28:21.932Z,81.01
2023-04-07T06:29:25.038Z,79.33
2023-04-07T06:30:28.074Z,79.22
2023-04-07T06:31:30.988Z,80.21
2023-04-07T06:32:33.902Z,80.46
2023-04-07T06:33:36.975Z,79.78
2023-04-07T06:34:39.849Z,79.69
2023-04-07T06:35:42.851Z,79.75
2023-04-07T06:36:46.678Z,80.27
2023-04-07T06:37:49.744Z,79.69
2023-04-07T06:38:53.842Z,79.04
2023-04-07T06:39:56.950Z,78.41
2023-04-07T06:40:59.977Z,78.88
2023-04-07T06:42:02.755Z,78.91
2023-04-07T06:43:06.443Z,79.25
2023-04-07T06:44:12.296Z,79.92
2023-04-07T06:45:15.272Z,80.20
2023-04-07T06:46:19.031Z,79.45
2023-04-07T06:47:22.245Z,78.42
2023-04-07T06:48:25.167Z,78.63
2023-04-07T06:49:28.141Z,78.28
2023-04-07T06:50:31.115Z,78.23
2023-04-07T06:51:33.941Z,78.68
2023-04-07T06:52:36.904Z,80.13
2023-04-07T06:53:39.657Z,79.55
2023-04-07T06:54:45.372Z,79.76
2023-04-07T06:55:48.158Z,78.25
2023-04-07T06:56:53.464Z,78.23
2023-04-07T06:57:57.483Z,77.72
2023-04-07T06:59:00.786Z,78.31
2023-04-07T07:00:04.235Z,77.89
2023-04-07T07:01:07.356Z,77.30
2023-04-07T07:02:10.530Z,77.83
2023-04-07T07:03:13.912Z,77.74
2023-04-07T07:04:17.070Z,76.91
2023-04-07T07:05:20.427Z,77.38
2023-04-07T07:06:23.339Z,77.04
2023-04-07T07:07:26.228Z,76.53
2023-04-07T07:08:33.791Z,76.97
2023-04-07T07:09:36.671Z,77.48
2023-04-07T07:10:39.640Z,77.23
2023-04-07T07:11:42.434Z,77.76
2023-04-07T07:12:45.599Z,77.75
2023-04-07T07:13:48.891Z,77.64
2023-04-07T07:14:51.891Z,78.36
2023-04-07T07:15:54.878Z,79.27
2023-04-07T07:16:57.787Z,78.24
2023-04-07T07:18:01.030Z,77.86
2023-04-07T07:19:03.949Z,77.83
2023-04-07T07:20:07.342Z,79.01
2023-04-07T07:21:10.578Z,79.67
2023-04-07T07:22:13.664Z,79.59
2023-04-07T07:23:16.458Z,78.68
2023-04-07T07:24:19.457Z,78.86
2023-04-07T07:25:22.470Z,79.60
2023-04-07T07:26:26.478Z,79.70
2023-04-07T07:27:29.756Z,80.16
2023-04-07T07:28:34.318Z,80.06
2023-04-07T07:29:37.367Z,80.16
2023-04-07T07:30:41.746Z,80.10
2023-04-07T07:31:44.681Z,80.68
2023-04-07T07:32:47.643Z,80.53
2023-04-07T07:33:52.133Z,82.44
2023-04-07T07:34:55.291Z,82.59
2023-04-07T07:35:58.106Z,83.61
2023-04-07T07:37:01.001Z,83.04
2023-04-07T07:38:04.272Z,83.24
2023-04-07T07:39:07.385Z,83.72
2023-04-07T07:40:11.128Z,85.53
2023-04-07T07:41:14.212Z,85.42
2023-04-07T07:42:17.351Z,86.21
2023-04-07T07:43:20.137Z,86.56
2023-04-07T07:44:23.924Z,86.96
2023-04-07T07:45:27.119Z,85.17
2023-04-07T07:46:29.919Z,83.77
2023-04-07T07:47:33.048Z,84.56
2023-04-07T07:48:39.815Z,85.02
2023-04-07T07:49:43.156Z,87.73
2023-04-07T07:50:47.342Z,87.88
2023-04-07T07:51:50.194Z,86.41
2023-04-07T07:52:53.489Z,85.34
2023-04-07T07:53:56.640Z,85.63
2023-04-07T07:54:59.437Z,85.56
2023-04-07T07:56:02.266Z,85.32
2023-04-07T07:57:06.369Z,85.09
2023-04-07T07:58:09.312Z,86.17
2023-04-07T07:59:12.357Z,86.26
2023-04-07T08:00:15.834Z,87.48
2023-04-07T08:01:18.601Z,86.39
2023-04-07T08:02:21.876Z,85.97
2023-04-07T08:03:25.111Z,85.76
2023-04-07T08:04:28.188Z,83.96
2023-04-07T08:05:31.353Z,83.84
2023-04-07T08:06:34.244Z,83.57
2023-04-07T08:07:37.946Z,83.16
2023-04-07T08:08:40.987Z,83.96
2023-04-07T08:09:43.910Z,81.67
2023-04-07T08:10:46.846Z,84.88
2023-04-07T08:11:50.312Z,84.13
2023-04-07T08:12:53.235Z,82.56
2023-04-07T08:13:56.129Z,80.57
2023-04-07T08:14:59.009Z,79.01
2023-04-07T08:16:02.330Z,78.34
2023-04-07T08:17:05.654Z,77.21
2023-04-07T08:18:09.493Z,79.30
2023-04-07T08:19:13.787Z,81.17
2023-04-07T08:20:16.958Z,81.81
2023-04-07T08:21:21.243Z,82.52
2023-04-07T08:22:24.093Z,79.49
2023-04-07T08:23:27.290Z,80.38
2023-04-07T08:24:30.251Z,79.17
2023-04-07T08:25:33.094Z,80.49
2023-04-07T08:26:36.323Z,81.03
2023-04-07T08:27:39.585Z,80.58
2023-04-07T08:28:43.114Z,81.20
2023-04-07T08:29:46.195Z,83.42
2023-04-07T08:30:49.472Z,84.19
2023-04-07T08:31:52.285Z,82.60
2023-04-07T08:32:55.174Z,83.57
2023-04-07T08:33:59.112Z,80.22
2023-04-07T08:35:02.172Z,79.53
2023-04-07T08:36:05.836Z,77.87
2023-04-07T08:37:09.776Z,77.25
2023-04-07T08:38:13.002Z,77.83
2023-04-07T08:39:16.663Z,81.57
2023-04-07T08:40:19.442Z,81.49
2023-04-07T08:41:31.221Z,80.35
2023-04-07T08:42:35.455Z,81.43
2023-04-07T08:43:39.403Z,80.23
2023-04-07T08:44:42.778Z,79.10
2023-04-07T08:45:47.535Z,78.51
2023-04-07T08:46:53.967Z,78.87
2023-04-07T08:47:59.680Z,80.46
2023-04-07T08:49:04.965Z,82.33
2023-04-07T08:50:12.279Z,80.96
2023-04-07T08:51:18.483Z,80.48
2023-04-07T08:52:26.847Z,82.07
2023-04-07T08:53:43.499Z,84.47
2023-04-07T08:54:50.359Z,80.71
2023-04-07T08:55:53.631Z,79.84
2023-04-07T08:56:57.137Z,81.60
2023-04-07T08:58:01.970Z,79.23
2023-04-07T08:59:08.031Z,78.23
2023-04-07T09:00:11.922Z,79.46
2023-04-07T09:01:19.198Z,81.19
2023-04-07T09:02:23.746Z,81.82
2023-04-07T09:03:27.323Z,82.45
2023-04-07T09:04:30.500Z,83.03
2023-04-07T09:05:34.495Z,81.80
2023-04-07T09:06:38.302Z,82.72
2023-04-07T09:07:41.253Z,83.48
2023-04-07T09:08:44.593Z,83.47
2023-04-07T09:09:48.131Z,82.00
2023-04-07T09:10:51.446Z,81.64
2023-04-07T09:11:54.484Z,84.37
2023-04-07T09:12:59.800Z,84.35
2023-04-07T09:14:03.137Z,85.22
2023-04-07T09:15:08.004Z,84.74
2023-04-07T09:16:11.389Z,84.22
2023-04-07T09:17:14.476Z,85.12
2023-04-07T09:18:20.906Z,84.85
2023-04-07T09:19:27.810Z,84.48
2023-04-07T09:20:59.265Z,84.24
2023-04-07T09:22:02.334Z,83.12
2023-04-07T09:23:05.510Z,83.52
2023-04-07T09:24:35.007Z,84.09
2023-04-07T09:25:38.021Z,84.99
2023-04-07T09:26:41.135Z,84.88
2023-04-07T09:28:04.386Z,85.25
2023-04-07T09:29:08.357Z,85.86
2023-04-07T09:30:13.801Z,85.00
2023-04-07T09:31:17.526Z,83.97
2023-04-07T09:32:41.699Z,84.24
2023-04-07T09:33:44.963Z,84.86
2023-04-07T09:34:47.886Z,85.31
2023-04-07T09:35:53.959Z,85.94
2023-04-07T09:36:58.046Z,87.09
2023-04-07T09:38:08.864Z,85.39
2023-04-07T09:39:11.758Z,84.94
2023-04-07T09:40:27.310Z,85.75
2023-04-07T09:41:30.475Z,84.31
2023-04-07T09:42:34.839Z,83.51
2023-04-07T09:43:43.023Z,84.78
2023-04-07T09:44:46.019Z,83.03
2023-04-07T09:45:50.017Z,82.74
2023-04-07T09:46:58.199Z,82.36
2023-04-07T09:48:06.870Z,82.89
2023-04-07T09:49:09.968Z,83.24
2023-04-07T09:50:13.206Z,82.93
2023-04-07T09:51:18.553Z,83.38
2023-04-07T09:52:47.450Z,83.07
2023-04-07T09:53:51.959Z,82.32
2023-04-07T09:54:57.063Z,85.03
2023-04-07T09:56:02.937Z,84.47
2023-04-07T09:57:11.159Z,83.30
2023-04-07T09:58:17.090Z,84.02
2023-04-07T09:59:20.525Z,82.13
2023-04-07T10:00:24.312Z,82.24
2023-04-07T10:01:27.351Z,81.72
2023-04-07T10:02:30.429Z,81.71
2023-04-07T10:03:34.210Z,81.79
2023-04-07T10:04:37.694Z,82.19
2023-04-07T10:05:41.492Z,82.51
2023-04-07T10:06:44.475Z,81.66
2023-04-07T10:07:48.390Z,81.79
2023-04-07T10:08:52.772Z,82.00
2023-04-07T10:09:58.010Z,82.92
2023-04-07T10:11:05.005Z,83.58
2023-04-07T10:12:08.010Z,82.62
2023-04-07T10:13:12.134Z,80.49
2023-04-07T10:14:16.548Z,81.46
2023-04-07T10:15:19.429Z,81.49
2023-04-07T10:16:23.765Z,80.04
2023-04-07T10:17:28.849Z,82.36
2023-04-07T10:18:35.828Z,82.11
2023-04-07T10:19:39.453Z,82.63
2023-04-07T10:20:42.674Z,80.95
2023-04-07T10:21:46.677Z,80.33
2023-04-07T10:22:54.089Z,79.32
2023-04-07T10:24:06.123Z,77.79
2023-04-07T10:25:16.023Z,78.41
2023-04-07T10:26:24.048Z,78.62
2023-04-07T10:27:37.636Z,78.32
2023-04-07T10:28:43.887Z,79.77
2023-04-07T10:29:50.463Z,80.76
2023-04-07T10:30:54.346Z,80.67
2023-04-07T10:31:59.751Z,79.92
2023-04-07T10:33:02.809Z,79.57
2023-04-07T10:34:06.108Z,80.22
2023-04-07T10:35:09.180Z,80.51
2023-04-07T10:36:12.674Z,80.15
2023-04-07T10:37:22.435Z,79.48
2023-04-07T10:38:26.637Z,76.84
2023-04-07T10:39:29.516Z,76.82
2023-04-07T10:40:32.751Z,77.38
2023-04-07T10:41:37.752Z,77.09
2023-04-07T10:42:41.101Z,77.32
2023-04-07T10:43:45.369Z,78.92
2023-04-07T10:44:49.982Z,79.31
2023-04-07T10:45:56.230Z,79.57
2023-04-07T10:47:01.897Z,79.68
2023-04-07T10:48:04.858Z,79.87
2023-04-07T10:49:10.807Z,79.00
2023-04-07T10:50:23.950Z,79.08
2023-04-07T10:51:27.518Z,79.53
2023-04-07T10:52:30.751Z,77.84
2023-04-07T10:53:37.250Z,76.80
2023-04-07T10:54:41.075Z,77.47
2023-04-07T10:55:45.317Z,77.23
2023-04-07T10:57:03.105Z,76.83
2023-04-07T10:58:26.375Z,74.35
2023-04-07T10:59:33.419Z,76.97
2023-04-07T11:00:36.251Z,76.68
2023-04-07T11:01:39.274Z,77.48
2023-04-07T11:02:42.993Z,77.47
2023-04-07T11:03:57.938Z,74.91
2023-04-07T11:05:01.599Z,75.03
2023-04-07T11:06:04.905Z,74.21
2023-04-07T11:07:09.103Z,74.12
2023-04-07T11:08:12.208Z,74.77
2023-04-07T11:09:21.382Z,75.29
2023-04-07T11:10:24.376Z,77.19
2023-04-07T11:11:41.920Z,77.72
2023-04-07T11:12:45.742Z,77.10
2023-04-07T11:13:51.243Z,77.74
2023-04-07T11:14:54.372Z,78.04
2023-04-07T11:15:57.706Z,77.49
2023-04-07T11:17:05.840Z,78.64
2023-04-07T11:18:09.332Z,78.10
2023-04-07T11:19:12.335Z,78.00
2023-04-07T11:20:15.111Z,77.46
2023-04-07T11:21:19.937Z,78.65
2023-04-07T11:22:29.848Z,79.33
2023-04-07T11:23:41.905Z,78.91
2023-04-07T11:24:46.889Z,78.37
2023-04-07T11:25:52.610Z,78.24
2023-04-07T11:26:55.615Z,78.85
2023-04-07T11:27:58.515Z,78.40
2023-04-07T11:29:02.033Z,77.93
2023-04-07T11:30:10.306Z,78.92
2023-04-07T11:31:31.882Z,79.99
2023-04-07T11:32:34.884Z,78.52
2023-04-07T11:33:39.337Z,78.32
2023-04-07T11:34:43.265Z,77.88
2023-04-07T11:35:51.437Z,78.02
2023-04-07T11:36:54.658Z,77.43
2023-04-07T11:38:02.732Z,77.42
2023-04-07T11:39:05.822Z,76.67
2023-04-07T11:40:09.544Z,76.44
2023-04-07T11:41:17.753Z,77.34
2023-04-07T11:42:37.577Z,77.82
2023-04-07T11:43:43.591Z,76.73
2023-04-07T11:44:46.763Z,77.05
2023-04-07T11:46:08.163Z,76.53
2023-04-07T11:47:11.171Z,76.65
2023-04-07T11:48:27.566Z,77.42
2023-04-07T11:49:32.002Z,77.17
2023-04-07T11:50:42.899Z,77.26
2023-04-07T11:51:46.318Z,76.84
2023-04-07T11:52:49.319Z,76.39
2023-04-07T11:53:57.210Z,77.11
2023-04-07T11:55:00.725Z,77.42
2023-04-07T11:56:10.928Z,77.84
2023-04-07T11:57:14.547Z,77.87
2023-04-07T11:58:18.255Z,76.58
2023-04-07T11:59:25.660Z,77.09
2023-04-07T12:00:32.360Z,77.18
2023-04-07T12:01:45.373Z,75.94
2023-04-07T12:02:48.513Z,75.35
2023-04-07T12:03:59.519Z,75.43
2023-04-07T12:05:02.681Z,75.68
2023-04-07T12:06:06.664Z,75.92
2023-04-07T12:07:11.777Z,76.00
2023-04-07T12:08:18.997Z,77.56
2023-04-07T12:09:36.181Z,78.17
2023-04-07T12:10:40.764Z,76.77
2023-04-07T12:11:50.508Z,77.22
2023-04-07T12:12:53.692Z,77.26
2023-04-07T12:13:57.366Z,75.63
2023-04-07T12:15:00.189Z,74.67
2023-04-07T12:16:03.186Z,74.35
2023-04-07T12:17:07.842Z,74.74
2023-04-07T12:18:16.562Z,74.69
2023-04-07T12:19:30.938Z,74.56
2023-04-07T12:20:35.409Z,74.42
2023-04-07T12:21:40.177Z,74.07
2023-04-07T12:22:43.061Z,74.24
2023-04-07T12:23:47.774Z,74.20
2023-04-07T12:24:50.767Z,73.99
2023-04-07T12:25:53.565Z,73.73
2023-04-07T12:26:57.788Z,74.39
2023-04-07T12:28:00.673Z,74.72
2023-04-07T12:29:07.176Z,75.24
2023-04-07T12:30:10.953Z,75.50
2023-04-07T12:31:14.876Z,74.42
2023-04-07T12:32:17.729Z,74.33
2023-04-07T12:33:20.804Z,74.34
2023-04-07T12:34:23.639Z,73.88
2023-04-07T12:35:27.116Z,73.75
2023-04-07T12:36:30.120Z,74.09
2023-04-07T12:37:33.283Z,74.42
2023-04-07T12:38:36.506Z,73.62
2023-04-07T12:39:39.912Z,73.87
2023-04-07T12:40:43.529Z,73.69
2023-04-07T12:41:47.897Z,74.49
2023-04-07T12:42:50.750Z,74.63
2023-04-07T12:43:53.805Z,74.50
2023-04-07T12:44:57.092Z,74.21
2023-04-07T12:45:59.933Z,73.06
2023-04-07T12:47:02.740Z,74.14
2023-04-07T12:48:06.405Z,75.46
2023-04-07T12:49:09.598Z,75.48
2023-04-07T12:50:12.645Z,74.98
2023-04-07T12:51:16.788Z,75.58
2023-04-07T12:52:19.835Z,76.04
2023-04-07T12:53:23.135Z,75.60
2023-04-07T12:54:26.101Z,74.56
2023-04-07T12:55:29.466Z,73.19
2023-04-07T12:56:32.771Z,72.02
2023-04-07T12:57:35.562Z,73.32
2023-04-07T12:58:38.686Z,73.90
2023-04-07T12:59:41.552Z,73.84
2023-04-07T13:00:44.613Z,74.11
2023-04-07T13:01:50.257Z,74.99
2023-04-07T13:02:54.563Z,74.79
2023-04-07T13:03:57.769Z,74.96
2023-04-07T13:05:00.656Z,75.59
2023-04-07T13:06:04.846Z,74.83
2023-04-07T13:07:08.616Z,73.13
2023-04-07T13:08:13.459Z,73.72
2023-04-07T13:09:18.663Z,74.58
2023-04-07T13:10:21.665Z,73.66
2023-04-07T13:11:24.466Z,73.89
2023-04-07T13:12:27.544Z,75.17
2023-04-07T13:13:31.597Z,75.84
2023-04-07T13:14:34.514Z,75.66
2023-04-07T13:15:37.645Z,75.82
2023-04-07T13:16:41.013Z,75.22
2023-04-07T13:17:44.557Z,75.48
2023-04-07T13:18:47.544Z,75.21
2023-04-07T13:19:50.735Z,75.17
2023-04-07T13:21:10.729Z,73.86
2023-04-07T13:22:21.889Z,74.46
2023-04-07T13:23:26.468Z,74.60
2023-04-07T13:24:29.490Z,75.03
2023-04-07T13:25:32.289Z,76.12
2023-04-07T13:26:35.270Z,75.60
2023-04-07T13:27:38.187Z,75.58
2023-04-07T13:28:41.676Z,75.54
2023-04-07T13:29:44.820Z,75.46
2023-04-07T13:30:48.076Z,74.71
2023-04-07T13:31:51.439Z,75.38
2023-04-07T13:32:54.553Z,74.55
2023-04-07T13:33:57.442Z,74.06
2023-04-07T13:35:02.389Z,73.85
2023-04-07T13:36:05.246Z,73.32
2023-04-07T13:37:08.179Z,74.58
2023-04-07T13:38:11.420Z,75.39
2023-04-07T13:39:14.486Z,75.02
2023-04-07T13:40:17.685Z,75.13
2023-04-07T13:41:21.768Z,75.51
2023-04-07T13:42:24.829Z,75.12
2023-04-07T13:43:27.910Z,74.86
2023-04-07T13:44:30.875Z,75.23
2023-04-07T13:45:34.037Z,74.71
2023-04-07T13:46:37.033Z,75.07
2023-04-07T13:47:40.206Z,75.28
2023-04-07T13:48:43.667Z,74.52
2023-04-07T13:49:50.090Z,74.99
2023-04-07T13:50:52.997Z,74.92
2023-04-07T13:51:56.194Z,75.58
2023-04-07T13:52:59.073Z,75.36
2023-04-07T13:54:02.489Z,75.11